sensor_id;sensor_type;location;lat;lon;timestamp;P1;durP1;ratioP1;P2;durP2;ratioP2
12869;SDS011;6503;48.572;13.460;2023-05-07T00:00:02;6.15;;;5.55;;
12869;SDS011;6503;48.572;13.460;2023-05-07T00:02:46;9.95;;;6.40;;
12869;SDS011;6503;48.572;13.460;2023-05-07T00:05:25;8.18;;;5.93;;
12869;SDS011;6503;48.572;13.460;2023-05-07T00:08:09;10.43;;;6.05;;
12869;SDS011;6503;48.572;13.460;2023-05-07T00:10:45;8.93;;;5.63;;
12869;SDS011;6503;48.572;13.460;2023-05-07T00:13:15;7.68;;;5.65;;
12869;SDS011;6503;48.572;13.460;2023-05-07T00:15:53;8.45;;;6.43;;
12869;SDS011;6503;48.572;13.460;2023-05-07T00:18:26;10.63;;;6.20;;
12869;SDS011;6503;48.572;13.460;2023-05-07T00:21:11;7.50;;;5.68;;
12869;SDS011;6503;48.572;13.460;2023-05-07T00:24:01;7.13;;;5.55;;
12869;SDS011;6503;48.572;13.460;2023-05-07T00:26:31;9.32;;;6.10;;
12869;SDS011;6503;48.572;13.460;2023-05-07T00:29:02;7.57;;;6.15;;
12869;SDS011;6503;48.572;13.460;2023-05-07T00:31:53;6.90;;;5.75;;
12869;SDS011;6503;48.572;13.460;2023-05-07T00:34:32;9.60;;;6.22;;
12869;SDS011;6503;48.572;13.460;2023-05-07T00:37:08;9.43;;;6.38;;
12869;SDS011;6503;48.572;13.460;2023-05-07T00:39:43;9.38;;;6.18;;
12869;SDS011;6503;48.572;13.460;2023-05-07T00:42:19;9.13;;;6.47;;
12869;SDS011;6503;48.572;13.460;2023-05-07T00:44:51;11.32;;;6.22;;
12869;SDS011;6503;48.572;13.460;2023-05-07T00:47:25;8.43;;;6.88;;
12869;SDS011;6503;48.572;13.460;2023-05-07T00:49:58;9.23;;;6.68;;
12869;SDS011;6503;48.572;13.460;2023-05-07T00:52:39;10.95;;;5.85;;
12869;SDS011;6503;48.572;13.460;2023-05-07T00:55:23;8.13;;;5.85;;
12869;SDS011;6503;48.572;13.460;2023-05-07T00:58:03;8.23;;;6.82;;
12869;SDS011;6503;48.572;13.460;2023-05-07T01:00:42;9.65;;;5.97;;
12869;SDS011;6503;48.572;13.460;2023-05-07T01:06:23;9.00;;;6.38;;
12869;SDS011;6503;48.572;13.460;2023-05-07T01:09:06;6.97;;;5.88;;
12869;SDS011;6503;48.572;13.460;2023-05-07T01:12:04;8.85;;;5.95;;
12869;SDS011;6503;48.572;13.460;2023-05-07T01:14:33;7.70;;;5.47;;
12869;SDS011;6503;48.572;13.460;2023-05-07T01:17:16;6.35;;;5.22;;
12869;SDS011;6503;48.572;13.460;2023-05-07T01:19:54;6.53;;;5.57;;
12869;SDS011;6503;48.572;13.460;2023-05-07T01:22:47;6.80;;;5.43;;
12869;SDS011;6503;48.572;13.460;2023-05-07T02:27:40;8.50;;;6.20;;
12869;SDS011;6503;48.572;13.460;2023-05-07T02:30:58;10.85;;;5.75;;
12869;SDS011;6503;48.572;13.460;2023-05-07T02:33:39;7.20;;;5.57;;
12869;SDS011;6503;48.572;13.460;2023-05-07T02:36:23;8.43;;;5.60;;
12869;SDS011;6503;48.572;13.460;2023-05-07T03:19:12;6.10;;;5.50;;
12869;SDS011;6503;48.572;13.460;2023-05-07T03:22:07;9.32;;;5.45;;
12869;SDS011;6503;48.572;13.460;2023-05-07T03:24:35;7.60;;;5.70;;
12869;SDS011;6503;48.572;13.460;2023-05-07T03:27:19;7.93;;;6.00;;
12869;SDS011;6503;48.572;13.460;2023-05-07T03:29:51;9.57;;;6.00;;
12869;SDS011;6503;48.572;13.460;2023-05-07T03:32:19;8.50;;;5.28;;
12869;SDS011;6503;48.572;13.460;2023-05-07T03:35:01;7.95;;;6.22;;
12869;SDS011;6503;48.572;13.460;2023-05-07T03:37:38;8.43;;;5.63;;
12869;SDS011;6503;48.572;13.460;2023-05-07T03:40:23;8.50;;;5.60;;
12869;SDS011;6503;48.572;13.460;2023-05-07T03:46:02;6.57;;;5.88;;
12869;SDS011;6503;48.572;13.460;2023-05-07T03:48:30;6.57;;;5.57;;
12869;SDS011;6503;48.572;13.460;2023-05-07T03:54:19;8.57;;;5.88;;
12869;SDS011;6503;48.572;13.460;2023-05-07T03:57:01;9.15;;;5.55;;
12869;SDS011;6503;48.572;13.460;2023-05-07T03:59:43;6.28;;;5.28;;
12869;SDS011;6503;48.572;13.460;2023-05-07T04:02:26;7.82;;;5.40;;
12869;SDS011;6503;48.572;13.460;2023-05-07T04:04:59;8.82;;;6.32;;
12869;SDS011;6503;48.572;13.460;2023-05-07T04:07:53;6.30;;;5.30;;
12869;SDS011;6503;48.572;13.460;2023-05-07T04:10:59;7.18;;;5.70;;
12869;SDS011;6503;48.572;13.460;2023-05-07T04:13:49;6.80;;;5.93;;
12869;SDS011;6503;48.572;13.460;2023-05-07T04:16:41;7.38;;;6.03;;
12869;SDS011;6503;48.572;13.460;2023-05-07T04:19:23;9.98;;;5.70;;
12869;SDS011;6503;48.572;13.460;2023-05-07T04:21:56;7.38;;;5.38;;
12869;SDS011;6503;48.572;13.460;2023-05-07T04:24:40;9.30;;;5.75;;
12869;SDS011;6503;48.572;13.460;2023-05-07T04:30:10;9.68;;;6.85;;
12869;SDS011;6503;48.572;13.460;2023-05-07T04:32:50;8.85;;;6.75;;
12869;SDS011;6503;48.572;13.460;2023-05-07T04:44:13;10.27;;;5.97;;
12869;SDS011;6503;48.572;13.460;2023-05-07T04:49:52;8.02;;;6.45;;
12869;SDS011;6503;48.572;13.460;2023-05-07T04:52:39;8.05;;;5.78;;
12869;SDS011;6503;48.572;13.460;2023-05-07T04:55:07;7.40;;;6.28;;
12869;SDS011;6503;48.572;13.460;2023-05-07T04:57:47;7.57;;;6.07;;
12869;SDS011;6503;48.572;13.460;2023-05-07T05:00:28;9.52;;;6.90;;
12869;SDS011;6503;48.572;13.460;2023-05-07T05:02:56;7.75;;;6.80;;
12869;SDS011;6503;48.572;13.460;2023-05-07T05:05:39;8.07;;;6.80;;
12869;SDS011;6503;48.572;13.460;2023-05-07T05:08:19;9.13;;;6.00;;
12869;SDS011;6503;48.572;13.460;2023-05-07T05:10:53;7.00;;;6.30;;
12869;SDS011;6503;48.572;13.460;2023-05-07T05:13:37;6.50;;;5.90;;
12869;SDS011;6503;48.572;13.460;2023-05-07T05:16:13;6.85;;;5.68;;
12869;SDS011;6503;48.572;13.460;2023-05-07T05:19:25;7.60;;;6.03;;
12869;SDS011;6503;48.572;13.460;2023-05-07T05:22:08;10.75;;;6.35;;
12869;SDS011;6503;48.572;13.460;2023-05-07T05:24:42;9.18;;;5.93;;
12869;SDS011;6503;48.572;13.460;2023-05-07T05:27:26;6.78;;;5.65;;
12869;SDS011;6503;48.572;13.460;2023-05-07T05:30:16;8.05;;;6.00;;
12869;SDS011;6503;48.572;13.460;2023-05-07T05:33:09;7.25;;;5.97;;
12869;SDS011;6503;48.572;13.460;2023-05-07T05:35:53;6.60;;;5.93;;
12869;SDS011;6503;48.572;13.460;2023-05-07T06:14:37;7.78;;;5.95;;
12869;SDS011;6503;48.572;13.460;2023-05-07T06:17:22;7.28;;;5.32;;
12869;SDS011;6503;48.572;13.460;2023-05-07T06:22:53;8.02;;;5.85;;
12869;SDS011;6503;48.572;13.460;2023-05-07T06:25:52;6.95;;;5.30;;
12869;SDS011;6503;48.572;13.460;2023-05-07T06:37:15;7.03;;;5.43;;
12869;SDS011;6503;48.572;13.460;2023-05-07T06:42:44;7.90;;;5.85;;
12869;SDS011;6503;48.572;13.460;2023-05-07T06:48:23;5.88;;;5.28;;
12869;SDS011;6503;48.572;13.460;2023-05-07T06:51:14;6.65;;;5.75;;
12869;SDS011;6503;48.572;13.460;2023-05-07T06:54:14;7.70;;;5.78;;
12869;SDS011;6503;48.572;13.460;2023-05-07T06:56:56;9.05;;;5.53;;
12869;SDS011;6503;48.572;13.460;2023-05-07T07:02:54;7.57;;;5.60;;
12869;SDS011;6503;48.572;13.460;2023-05-07T07:05:34;8.20;;;6.05;;
12869;SDS011;6503;48.572;13.460;2023-05-07T07:08:21;5.95;;;5.30;;
12869;SDS011;6503;48.572;13.460;2023-05-07T07:11:08;6.65;;;5.32;;
12869;SDS011;6503;48.572;13.460;2023-05-07T07:13:45;12.18;;;5.75;;
12869;SDS011;6503;48.572;13.460;2023-05-07T07:16:19;7.65;;;5.05;;
12869;SDS011;6503;48.572;13.460;2023-05-07T07:18:54;7.53;;;5.07;;
12869;SDS011;6503;48.572;13.460;2023-05-07T07:21:35;6.25;;;4.68;;
12869;SDS011;6503;48.572;13.460;2023-05-07T07:24:26;5.55;;;4.90;;
12869;SDS011;6503;48.572;13.460;2023-05-07T07:51:35;6.35;;;4.57;;
12869;SDS011;6503;48.572;13.460;2023-05-07T07:54:16;7.43;;;4.47;;
12869;SDS011;6503;48.572;13.460;2023-05-07T07:57:08;6.43;;;4.22;;
12869;SDS011;6503;48.572;13.460;2023-05-07T07:59:55;6.45;;;4.38;;
12869;SDS011;6503;48.572;13.460;2023-05-07T08:02:42;5.88;;;4.57;;
12869;SDS011;6503;48.572;13.460;2023-05-07T08:05:32;4.65;;;4.10;;
12869;SDS011;6503;48.572;13.460;2023-05-07T08:13:42;6.03;;;4.45;;
12869;SDS011;6503;48.572;13.460;2023-05-07T08:16:32;7.93;;;4.07;;
12869;SDS011;6503;48.572;13.460;2023-05-07T08:19:13;7.50;;;4.00;;
12869;SDS011;6503;48.572;13.460;2023-05-07T08:21:50;6.07;;;4.30;;
12869;SDS011;6503;48.572;13.460;2023-05-07T08:24:25;5.55;;;3.83;;
12869;SDS011;6503;48.572;13.460;2023-05-07T08:30:12;4.15;;;3.63;;
12869;SDS011;6503;48.572;13.460;2023-05-07T08:33:02;5.55;;;4.22;;
12869;SDS011;6503;48.572;13.460;2023-05-07T08:38:43;7.32;;;4.05;;
12869;SDS011;6503;48.572;13.460;2023-05-07T08:47:42;5.45;;;3.58;;
12869;SDS011;6503;48.572;13.460;2023-05-07T08:53:13;6.00;;;4.25;;
12869;SDS011;6503;48.572;13.460;2023-05-07T08:53:22;3.90;;;3.50;;
12869;SDS011;6503;48.572;13.460;2023-05-07T08:59:28;4.20;;;3.80;;
12869;SDS011;6503;48.572;13.460;2023-05-07T09:02:10;5.30;;;3.78;;
12869;SDS011;6503;48.572;13.460;2023-05-07T09:07:33;5.45;;;3.97;;
12869;SDS011;6503;48.572;13.460;2023-05-07T09:10:13;4.68;;;3.88;;
12869;SDS011;6503;48.572;13.460;2023-05-07T09:12:54;6.78;;;4.00;;
12869;SDS011;6503;48.572;13.460;2023-05-07T09:18:36;6.20;;;4.32;;
12869;SDS011;6503;48.572;13.460;2023-05-07T09:21:26;6.65;;;3.97;;
12869;SDS011;6503;48.572;13.460;2023-05-07T09:24:01;4.22;;;3.83;;
12869;SDS011;6503;48.572;13.460;2023-05-07T09:27:08;7.00;;;4.50;;
12869;SDS011;6503;48.572;13.460;2023-05-07T09:29:38;5.72;;;4.18;;
12869;SDS011;6503;48.572;13.460;2023-05-07T09:32:35;6.47;;;3.90;;
12869;SDS011;6503;48.572;13.460;2023-05-07T09:35:21;4.80;;;3.95;;
12869;SDS011;6503;48.572;13.460;2023-05-07T09:38:07;4.15;;;3.60;;
12869;SDS011;6503;48.572;13.460;2023-05-07T09:47:10;5.85;;;3.50;;
12869;SDS011;6503;48.572;13.460;2023-05-07T09:55:29;4.68;;;3.20;;
12869;SDS011;6503;48.572;13.460;2023-05-07T09:58:10;4.22;;;3.42;;
12869;SDS011;6503;48.572;13.460;2023-05-07T10:01:03;4.28;;;3.22;;
12869;SDS011;6503;48.572;13.460;2023-05-07T10:09:55;5.00;;;3.17;;
12869;SDS011;6503;48.572;13.460;2023-05-07T10:12:42;3.53;;;3.15;;
12869;SDS011;6503;48.572;13.460;2023-05-07T10:21:22;4.10;;;3.05;;
12869;SDS011;6503;48.572;13.460;2023-05-07T10:24:16;3.15;;;2.80;;
12869;SDS011;6503;48.572;13.460;2023-05-07T10:33:27;4.22;;;2.90;;
12869;SDS011;6503;48.572;13.460;2023-05-07T10:39:02;3.10;;;2.80;;
12869;SDS011;6503;48.572;13.460;2023-05-07T10:41:34;3.58;;;2.80;;
12869;SDS011;6503;48.572;13.460;2023-05-07T10:44:10;3.33;;;2.80;;
12869;SDS011;6503;48.572;13.460;2023-05-07T10:48:55;4.43;;;3.03;;
12869;SDS011;6503;48.572;13.460;2023-05-07T11:08:25;2.65;;;2.45;;
12869;SDS011;6503;48.572;13.460;2023-05-07T11:14:09;3.53;;;2.72;;
12869;SDS011;6503;48.572;13.460;2023-05-07T11:17:21;3.53;;;2.45;;
12869;SDS011;6503;48.572;13.460;2023-05-07T11:20:14;4.03;;;2.50;;
12869;SDS011;6503;48.572;13.460;2023-05-07T11:22:56;2.72;;;2.28;;
12869;SDS011;6503;48.572;13.460;2023-05-07T11:28:55;4.05;;;2.65;;
12869;SDS011;6503;48.572;13.460;2023-05-07T11:31:36;4.10;;;2.80;;
12869;SDS011;6503;48.572;13.460;2023-05-07T11:37:48;2.42;;;2.22;;
12869;SDS011;6503;48.572;13.460;2023-05-07T11:40:23;3.33;;;2.50;;
12869;SDS011;6503;48.572;13.460;2023-05-07T11:43:30;2.53;;;2.20;;
12869;SDS011;6503;48.572;13.460;2023-05-07T11:49:20;3.55;;;2.25;;
12869;SDS011;6503;48.572;13.460;2023-05-07T11:52:04;3.33;;;2.65;;
12869;SDS011;6503;48.572;13.460;2023-05-07T11:58:20;2.63;;;2.42;;
12869;SDS011;6503;48.572;13.460;2023-05-07T12:07:43;3.78;;;3.05;;
12869;SDS011;6503;48.572;13.460;2023-05-07T12:13:53;3.60;;;3.15;;
12869;SDS011;6503;48.572;13.460;2023-05-07T12:16:54;3.42;;;2.83;;
12869;SDS011;6503;48.572;13.460;2023-05-07T12:19:28;5.93;;;3.03;;
12869;SDS011;6503;48.572;13.460;2023-05-07T12:25:18;3.72;;;2.50;;
12869;SDS011;6503;48.572;13.460;2023-05-07T12:27:55;3.10;;;2.80;;
12869;SDS011;6503;48.572;13.460;2023-05-07T12:33:22;5.85;;;3.95;;
12869;SDS011;6503;48.572;13.460;2023-05-07T12:36:26;4.88;;;3.20;;
12869;SDS011;6503;48.572;13.460;2023-05-07T12:39:15;4.60;;;3.65;;
12869;SDS011;6503;48.572;13.460;2023-05-07T12:42:07;5.88;;;3.50;;
12869;SDS011;6503;48.572;13.460;2023-05-07T12:44:45;3.97;;;3.30;;
12869;SDS011;6503;48.572;13.460;2023-05-07T12:48:35;4.55;;;3.13;;
12869;SDS011;6503;48.572;13.460;2023-05-07T12:50:40;4.90;;;3.47;;
12869;SDS011;6503;48.572;13.460;2023-05-07T12:53:23;3.47;;;3.15;;
12869;SDS011;6503;48.572;13.460;2023-05-07T12:56:25;4.68;;;3.40;;
12869;SDS011;6503;48.572;13.460;2023-05-07T13:11:52;5.70;;;2.80;;
12869;SDS011;6503;48.572;13.460;2023-05-07T13:17:21;4.40;;;2.97;;
12869;SDS011;6503;48.572;13.460;2023-05-07T13:18:01;3.33;;;2.83;;
12869;SDS011;6503;48.572;13.460;2023-05-07T13:20:59;3.55;;;2.80;;
12869;SDS011;6503;48.572;13.460;2023-05-07T13:23:52;3.88;;;3.08;;
12869;SDS011;6503;48.572;13.460;2023-05-07T13:26:39;3.13;;;2.45;;
12869;SDS011;6503;48.572;13.460;2023-05-07T13:29:41;3.97;;;2.60;;
12869;SDS011;6503;48.572;13.460;2023-05-07T13:35:19;3.75;;;2.55;;
12869;SDS011;6503;48.572;13.460;2023-05-07T13:40:57;2.75;;;1.98;;
12869;SDS011;6503;48.572;13.460;2023-05-07T13:43:37;2.40;;;2.10;;
12869;SDS011;6503;48.572;13.460;2023-05-07T13:55:23;2.55;;;2.13;;
12869;SDS011;6503;48.572;13.460;2023-05-07T13:58:08;2.22;;;2.00;;
12869;SDS011;6503;48.572;13.460;2023-05-07T14:00:49;4.68;;;2.38;;
12869;SDS011;6503;48.572;13.460;2023-05-07T14:06:10;3.30;;;2.00;;
12869;SDS011;6503;48.572;13.460;2023-05-07T14:08:56;3.22;;;2.00;;
12869;SDS011;6503;48.572;13.460;2023-05-07T14:11:28;2.20;;;2.00;;
12869;SDS011;6503;48.572;13.460;2023-05-07T14:13:59;3.33;;;2.42;;
12869;SDS011;6503;48.572;13.460;2023-05-07T14:16:35;4.65;;;2.60;;
12869;SDS011;6503;48.572;13.460;2023-05-07T14:19:14;2.78;;;2.33;;
12869;SDS011;6503;48.572;13.460;2023-05-07T14:21:44;2.53;;;2.03;;
12869;SDS011;6503;48.572;13.460;2023-05-07T14:24:33;3.75;;;2.10;;
12869;SDS011;6503;48.572;13.460;2023-05-07T14:33:09;2.70;;;2.15;;
12869;SDS011;6503;48.572;13.460;2023-05-07T14:38:54;2.28;;;2.08;;
12869;SDS011;6503;48.572;13.460;2023-05-07T14:41:33;3.50;;;1.95;;
12869;SDS011;6503;48.572;13.460;2023-05-07T14:44:05;2.83;;;1.73;;
12869;SDS011;6503;48.572;13.460;2023-05-07T14:49:38;2.25;;;2.05;;
12869;SDS011;6503;48.572;13.460;2023-05-07T14:58:05;3.17;;;2.25;;
12869;SDS011;6503;48.572;13.460;2023-05-07T15:03:29;3.40;;;2.00;;
12869;SDS011;6503;48.572;13.460;2023-05-07T15:09:05;3.90;;;2.60;;
12869;SDS011;6503;48.572;13.460;2023-05-07T15:11:56;2.35;;;2.03;;
12869;SDS011;6503;48.572;13.460;2023-05-07T15:14:45;2.92;;;2.17;;
12869;SDS011;6503;48.572;13.460;2023-05-07T15:17:35;2.95;;;1.98;;
12869;SDS011;6503;48.572;13.460;2023-05-07T15:20:19;3.97;;;2.47;;
12869;SDS011;6503;48.572;13.460;2023-05-07T15:22:54;2.92;;;2.20;;
12869;SDS011;6503;48.572;13.460;2023-05-07T15:28:35;2.22;;;1.95;;
12869;SDS011;6503;48.572;13.460;2023-05-07T15:31:35;4.68;;;2.10;;
12869;SDS011;6503;48.572;13.460;2023-05-07T15:34:17;3.92;;;2.47;;
12869;SDS011;6503;48.572;13.460;2023-05-07T15:37:04;2.42;;;2.20;;
12869;SDS011;6503;48.572;13.460;2023-05-07T15:39:45;4.32;;;2.20;;
12869;SDS011;6503;48.572;13.460;2023-05-07T15:42:19;3.42;;;2.50;;
12869;SDS011;6503;48.572;13.460;2023-05-07T15:44:50;2.45;;;2.03;;
12869;SDS011;6503;48.572;13.460;2023-05-07T15:50:36;3.55;;;2.45;;
12869;SDS011;6503;48.572;13.460;2023-05-07T15:53:09;2.88;;;2.47;;
12869;SDS011;6503;48.572;13.460;2023-05-07T15:55:49;2.95;;;2.20;;
12869;SDS011;6503;48.572;13.460;2023-05-07T15:58:34;2.83;;;2.45;;
12869;SDS011;6503;48.572;13.460;2023-05-07T16:01:20;4.75;;;2.85;;
12869;SDS011;6503;48.572;13.460;2023-05-07T16:04:06;4.63;;;2.88;;
12869;SDS011;6503;48.572;13.460;2023-05-07T16:06:41;3.90;;;2.53;;
12869;SDS011;6503;48.572;13.460;2023-05-07T16:09:17;4.38;;;2.90;;
12869;SDS011;6503;48.572;13.460;2023-05-07T16:11:57;3.85;;;2.78;;
12869;SDS011;6503;48.572;13.460;2023-05-07T16:14:26;4.68;;;2.70;;
12869;SDS011;6503;48.572;13.460;2023-05-07T16:20:13;4.30;;;2.92;;
12869;SDS011;6503;48.572;13.460;2023-05-07T16:23:19;4.28;;;3.13;;
12869;SDS011;6503;48.572;13.460;2023-05-07T16:26:16;4.32;;;3.20;;
12869;SDS011;6503;48.572;13.460;2023-05-07T16:29:00;3.15;;;2.83;;
12869;SDS011;6503;48.572;13.460;2023-05-07T16:31:49;3.72;;;3.20;;
12869;SDS011;6503;48.572;13.460;2023-05-07T16:34:19;3.90;;;3.50;;
12869;SDS011;6503;48.572;13.460;2023-05-07T17:00:30;4.85;;;4.03;;
12869;SDS011;6503;48.572;13.460;2023-05-07T17:03:12;5.10;;;3.88;;
12869;SDS011;6503;48.572;13.460;2023-05-07T17:05:55;6.18;;;4.45;;
12869;SDS011;6503;48.572;13.460;2023-05-07T17:08:40;7.00;;;4.65;;
12869;SDS011;6503;48.572;13.460;2023-05-07T17:11:28;6.40;;;4.43;;
12869;SDS011;6503;48.572;13.460;2023-05-07T17:14:14;6.80;;;4.15;;
12869;SDS011;6503;48.572;13.460;2023-05-07T17:20:00;6.30;;;4.75;;
12869;SDS011;6503;48.572;13.460;2023-05-07T17:22:43;6.45;;;4.28;;
12869;SDS011;6503;48.572;13.460;2023-05-07T17:25:35;5.30;;;4.43;;
12869;SDS011;6503;48.572;13.460;2023-05-07T17:28:23;6.50;;;4.35;;
12869;SDS011;6503;48.572;13.460;2023-05-07T17:30:51;8.38;;;5.82;;
12869;SDS011;6503;48.572;13.460;2023-05-07T17:33:37;6.03;;;4.43;;
12869;SDS011;6503;48.572;13.460;2023-05-07T17:36:27;6.68;;;4.85;;
12869;SDS011;6503;48.572;13.460;2023-05-07T17:39:10;6.05;;;4.65;;
12869;SDS011;6503;48.572;13.460;2023-05-07T17:41:51;8.27;;;5.05;;
12869;SDS011;6503;48.572;13.460;2023-05-07T17:44:44;8.45;;;5.25;;
12869;SDS011;6503;48.572;13.460;2023-05-07T17:47:16;5.93;;;4.85;;
12869;SDS011;6503;48.572;13.460;2023-05-07T17:49:48;7.22;;;4.75;;
12869;SDS011;6503;48.572;13.460;2023-05-07T17:52:19;7.10;;;4.72;;
12869;SDS011;6503;48.572;13.460;2023-05-07T17:54:53;7.47;;;4.93;;
12869;SDS011;6503;48.572;13.460;2023-05-07T17:57:21;6.78;;;5.57;;
12869;SDS011;6503;48.572;13.460;2023-05-07T17:59:50;6.17;;;5.40;;
12869;SDS011;6503;48.572;13.460;2023-05-07T18:02:22;7.00;;;5.55;;
12869;SDS011;6503;48.572;13.460;2023-05-07T18:05:07;10.85;;;5.53;;
12869;SDS011;6503;48.572;13.460;2023-05-07T18:07:41;8.85;;;5.50;;
12869;SDS011;6503;48.572;13.460;2023-05-07T18:10:11;5.68;;;4.93;;
12869;SDS011;6503;48.572;13.460;2023-05-07T18:12:51;7.20;;;5.65;;
12869;SDS011;6503;48.572;13.460;2023-05-07T18:15:21;7.10;;;5.85;;
12869;SDS011;6503;48.572;13.460;2023-05-07T18:18:01;6.63;;;5.75;;
12869;SDS011;6503;48.572;13.460;2023-05-07T18:20:37;7.35;;;5.53;;
12869;SDS011;6503;48.572;13.460;2023-05-07T18:23:10;7.55;;;5.45;;
12869;SDS011;6503;48.572;13.460;2023-05-07T18:25:37;8.32;;;5.55;;
12869;SDS011;6503;48.572;13.460;2023-05-07T18:28:05;8.98;;;6.32;;
12869;SDS011;6503;48.572;13.460;2023-05-07T18:30:46;7.25;;;5.75;;
12869;SDS011;6503;48.572;13.460;2023-05-07T18:33:36;9.15;;;6.15;;
12869;SDS011;6503;48.572;13.460;2023-05-07T18:36:06;8.13;;;5.57;;
12869;SDS011;6503;48.572;13.460;2023-05-07T18:38:40;7.85;;;6.03;;
12869;SDS011;6503;48.572;13.460;2023-05-07T18:41:24;7.10;;;5.90;;
12869;SDS011;6503;48.572;13.460;2023-05-07T18:43:52;8.65;;;6.20;;
12869;SDS011;6503;48.572;13.460;2023-05-07T18:46:20;7.75;;;6.28;;
12869;SDS011;6503;48.572;13.460;2023-05-07T18:48:47;10.02;;;6.07;;
12869;SDS011;6503;48.572;13.460;2023-05-07T18:51:16;8.52;;;6.22;;
12869;SDS011;6503;48.572;13.460;2023-05-07T18:53:48;8.45;;;6.22;;
12869;SDS011;6503;48.572;13.460;2023-05-07T18:56:17;8.15;;;6.00;;
12869;SDS011;6503;48.572;13.460;2023-05-07T18:58:50;7.55;;;5.30;;
12869;SDS011;6503;48.572;13.460;2023-05-07T19:01:18;9.02;;;6.07;;
12869;SDS011;6503;48.572;13.460;2023-05-07T19:03:45;8.27;;;6.25;;
12869;SDS011;6503;48.572;13.460;2023-05-07T19:06:15;8.70;;;5.78;;
12869;SDS011;6503;48.572;13.460;2023-05-07T19:08:42;7.50;;;5.88;;
12869;SDS011;6503;48.572;13.460;2023-05-07T19:11:11;8.95;;;6.43;;
12869;SDS011;6503;48.572;13.460;2023-05-07T19:13:39;7.57;;;5.75;;
12869;SDS011;6503;48.572;13.460;2023-05-07T19:16:12;7.82;;;5.80;;
12869;SDS011;6503;48.572;13.460;2023-05-07T19:18:40;8.52;;;6.07;;
12869;SDS011;6503;48.572;13.460;2023-05-07T19:21:07;8.85;;;6.05;;
12869;SDS011;6503;48.572;13.460;2023-05-07T19:23:44;7.47;;;5.40;;
12869;SDS011;6503;48.572;13.460;2023-05-07T19:26:17;8.18;;;6.18;;
12869;SDS011;6503;48.572;13.460;2023-05-07T19:28:53;9.48;;;5.88;;
12869;SDS011;6503;48.572;13.460;2023-05-07T19:31:22;8.82;;;6.13;;
12869;SDS011;6503;48.572;13.460;2023-05-07T19:33:59;9.70;;;6.57;;
12869;SDS011;6503;48.572;13.460;2023-05-07T19:36:27;11.13;;;6.22;;
12869;SDS011;6503;48.572;13.460;2023-05-07T19:38:57;8.60;;;5.78;;
12869;SDS011;6503;48.572;13.460;2023-05-07T19:41:27;8.10;;;5.78;;
12869;SDS011;6503;48.572;13.460;2023-05-07T19:43:55;8.60;;;5.93;;
12869;SDS011;6503;48.572;13.460;2023-05-07T19:46:23;9.07;;;6.22;;
12869;SDS011;6503;48.572;13.460;2023-05-07T19:48:54;9.20;;;5.65;;
12869;SDS011;6503;48.572;13.460;2023-05-07T19:51:24;9.98;;;6.72;;
12869;SDS011;6503;48.572;13.460;2023-05-07T19:54:00;11.73;;;7.03;;
12869;SDS011;6503;48.572;13.460;2023-05-07T19:56:29;8.20;;;6.38;;
12869;SDS011;6503;48.572;13.460;2023-05-07T19:58:56;9.77;;;6.32;;
12869;SDS011;6503;48.572;13.460;2023-05-07T20:01:26;7.90;;;6.00;;
12869;SDS011;6503;48.572;13.460;2023-05-07T20:04:06;9.02;;;6.30;;
12869;SDS011;6503;48.572;13.460;2023-05-07T20:06:41;9.88;;;6.50;;
12869;SDS011;6503;48.572;13.460;2023-05-07T20:09:13;8.00;;;6.35;;
12869;SDS011;6503;48.572;13.460;2023-05-07T20:11:50;11.23;;;6.88;;
12869;SDS011;6503;48.572;13.460;2023-05-07T20:14:18;14.20;;;7.40;;
12869;SDS011;6503;48.572;13.460;2023-05-07T20:16:47;8.45;;;6.43;;
12869;SDS011;6503;48.572;13.460;2023-05-07T20:19:16;9.23;;;6.80;;
12869;SDS011;6503;48.572;13.460;2023-05-07T20:21:49;8.20;;;6.15;;
12869;SDS011;6503;48.572;13.460;2023-05-07T20:24:17;10.55;;;6.75;;
12869;SDS011;6503;48.572;13.460;2023-05-07T20:26:45;8.38;;;5.88;;
12869;SDS011;6503;48.572;13.460;2023-05-07T20:29:30;10.77;;;6.07;;
12869;SDS011;6503;48.572;13.460;2023-05-07T20:31:59;7.22;;;6.50;;
12869;SDS011;6503;48.572;13.460;2023-05-07T20:34:27;7.85;;;5.50;;
12869;SDS011;6503;48.572;13.460;2023-05-07T20:36:54;7.43;;;5.85;;
12869;SDS011;6503;48.572;13.460;2023-05-07T20:39:24;7.22;;;6.10;;
12869;SDS011;6503;48.572;13.460;2023-05-07T20:41:54;7.57;;;5.43;;
12869;SDS011;6503;48.572;13.460;2023-05-07T20:44:37;8.20;;;5.68;;
12869;SDS011;6503;48.572;13.460;2023-05-07T20:47:10;10.30;;;6.30;;
12869;SDS011;6503;48.572;13.460;2023-05-07T20:49:41;6.00;;;5.35;;
12869;SDS011;6503;48.572;13.460;2023-05-07T20:52:11;6.78;;;5.38;;
12869;SDS011;6503;48.572;13.460;2023-05-07T20:54:44;5.93;;;5.15;;
12869;SDS011;6503;48.572;13.460;2023-05-07T20:57:14;7.57;;;5.68;;
12869;SDS011;6503;48.572;13.460;2023-05-07T20:59:46;7.18;;;5.10;;
12869;SDS011;6503;48.572;13.460;2023-05-07T21:02:17;6.80;;;5.30;;
12869;SDS011;6503;48.572;13.460;2023-05-07T21:04:47;8.43;;;5.47;;
12869;SDS011;6503;48.572;13.460;2023-05-07T21:07:21;6.18;;;5.22;;
12869;SDS011;6503;48.572;13.460;2023-05-07T21:09:48;7.25;;;4.80;;
12869;SDS011;6503;48.572;13.460;2023-05-07T21:12:16;5.15;;;4.65;;
12869;SDS011;6503;48.572;13.460;2023-05-07T21:14:45;5.80;;;4.30;;
12869;SDS011;6503;48.572;13.460;2023-05-07T21:17:13;6.00;;;4.72;;
12869;SDS011;6503;48.572;13.460;2023-05-07T21:19:41;7.95;;;5.25;;
12869;SDS011;6503;48.572;13.460;2023-05-07T21:22:26;6.70;;;6.10;;
12869;SDS011;6503;48.572;13.460;2023-05-07T21:24:54;4.68;;;4.18;;
12869;SDS011;6503;48.572;13.460;2023-05-07T21:27:31;5.57;;;4.97;;
12869;SDS011;6503;48.572;13.460;2023-05-07T21:30:15;6.38;;;4.72;;
12869;SDS011;6503;48.572;13.460;2023-05-07T21:32:44;5.68;;;4.30;;
12869;SDS011;6503;48.572;13.460;2023-05-07T21:35:14;6.25;;;5.07;;
12869;SDS011;6503;48.572;13.460;2023-05-07T21:37:48;5.18;;;4.65;;
12869;SDS011;6503;48.572;13.460;2023-05-07T21:40:36;6.10;;;4.93;;
12869;SDS011;6503;48.572;13.460;2023-05-07T21:43:08;6.35;;;4.80;;
12869;SDS011;6503;48.572;13.460;2023-05-07T21:45:40;7.20;;;5.03;;
12869;SDS011;6503;48.572;13.460;2023-05-07T21:48:09;6.22;;;4.80;;
12869;SDS011;6503;48.572;13.460;2023-05-07T21:50:47;6.13;;;4.18;;
12869;SDS011;6503;48.572;13.460;2023-05-07T21:53:14;6.53;;;5.00;;
12869;SDS011;6503;48.572;13.460;2023-05-07T21:55:45;5.95;;;4.68;;
12869;SDS011;6503;48.572;13.460;2023-05-07T21:58:15;6.35;;;4.82;;
12869;SDS011;6503;48.572;13.460;2023-05-07T22:03:16;5.85;;;4.50;;
12869;SDS011;6503;48.572;13.460;2023-05-07T22:05:44;5.43;;;4.82;;
12869;SDS011;6503;48.572;13.460;2023-05-07T22:08:15;5.05;;;4.38;;
12869;SDS011;6503;48.572;13.460;2023-05-07T22:10:44;6.15;;;4.45;;
12869;SDS011;6503;48.572;13.460;2023-05-07T22:13:26;6.57;;;4.90;;
12869;SDS011;6503;48.572;13.460;2023-05-07T22:16:00;5.18;;;4.65;;
12869;SDS011;6503;48.572;13.460;2023-05-07T22:18:34;8.68;;;5.40;;
12869;SDS011;6503;48.572;13.460;2023-05-07T22:21:04;5.40;;;4.90;;
12869;SDS011;6503;48.572;13.460;2023-05-07T22:23:33;5.68;;;5.00;;
12869;SDS011;6503;48.572;13.460;2023-05-07T22:26:01;5.30;;;4.55;;
12869;SDS011;6503;48.572;13.460;2023-05-07T22:28:35;5.28;;;4.63;;
12869;SDS011;6503;48.572;13.460;2023-05-07T22:31:03;6.40;;;5.43;;
12869;SDS011;6503;48.572;13.460;2023-05-07T22:33:36;5.80;;;5.07;;
12869;SDS011;6503;48.572;13.460;2023-05-07T22:36:12;6.32;;;5.60;;
12869;SDS011;6503;48.572;13.460;2023-05-07T22:38:39;6.20;;;5.50;;
12869;SDS011;6503;48.572;13.460;2023-05-07T22:41:10;5.55;;;5.05;;
12869;SDS011;6503;48.572;13.460;2023-05-07T22:43:41;6.40;;;5.70;;
12869;SDS011;6503;48.572;13.460;2023-05-07T22:46:11;6.88;;;5.95;;
12869;SDS011;6503;48.572;13.460;2023-05-07T22:48:41;6.85;;;5.68;;
12869;SDS011;6503;48.572;13.460;2023-05-07T22:51:11;6.38;;;5.78;;